Time,TemperatureF,DewpointF,PressureIn,WindDirection,WindDirectionDegrees,WindSpeedMPH,WindSpeedGustMPH,Humidity,HourlyPrecipIn,Conditions,Clouds,dailyrainin,SoftwareType,DateUTC
2013-02-04 00:15:00,46.4,32.0,29.83,SE,135,0.0,-999.0,57,-99.99,,,0.00,Acu-Link.com,2013-02-04 07:15:00,
2013-02-04 00:30:00,46.4,32.0,29.83,East,90,0.0,-999.0,57,-99.99,,,0.00,Acu-Link.com,2013-02-04 07:30:00,
2013-02-04 00:45:00,46.8,32.4,29.83,ESE,112,0.0,-999.0,57,-99.99,,,0.00,Acu-Link.com,2013-02-04 07:45:00,
2013-02-04 01:00:00,46.9,32.0,29.82,NE,45,0.0,-999.0,56,-99.99,,,0.00,Acu-Link.com,2013-02-04 08:00:00,
2013-02-04 01:15:00,47.5,30.3,29.83,ENE,67,0.0,-999.0,51,-99.99,,,0.00,Acu-Link.com,2013-02-04 08:15:00,
2013-02-04 01:30:00,46.6,29.5,29.82,ESE,112,0.0,-999.0,51,-99.99,,,0.00,Acu-Link.com,2013-02-04 08:30:00,
2013-02-04 01:45:00,45.0,28.4,29.82,South,180,0.0,-999.0,52,-99.99,,,0.00,Acu-Link.com,2013-02-04 08:45:00,
2013-02-04 02:00:00,43.5,27.5,29.83,SW,225,0.0,-999.0,53,-99.99,,,0.00,Acu-Link.com,2013-02-04 09:00:00,
2013-02-04 02:15:00,42.3,27.7,29.83,NW,315,0.0,-999.0,56,-99.99,,,0.00,Acu-Link.com,2013-02-04 09:15:00,
2013-02-04 02:31:00,41.5,27.4,29.83,SW,225,0.0,-999.0,57,-99.99,,,0.00,Acu-Link.com,2013-02-04 09:31:00,
2013-02-04 02:46:00,40.6,27.4,29.83,ENE,67,0.0,-999.0,59,-99.99,,,0.00,Acu-Link.com,2013-02-04 09:46:00,
2013-02-04 03:01:00,40.3,27.1,29.83,ENE,67,0.0,-999.0,59,-99.99,,,0.00,Acu-Link.com,2013-02-04 10:01:00,
2013-02-04 03:16:00,40.3,27.1,29.83,WNW,292,0.0,-999.0,59,-99.99,,,0.00,Acu-Link.com,2013-02-04 10:16:00,
2013-02-04 03:31:00,39.7,27.4,29.83,SSE,157,0.0,-999.0,61,-99.99,,,0.00,Acu-Link.com,2013-02-04 10:31:00,
2013-02-04 03:46:00,39.0,27.5,29.83,East,90,0.0,-999.0,63,-99.99,,,0.00,Acu-Link.com,2013-02-04 10:46:00,
2013-02-04 04:01:00,39.0,27.5,29.83,East,90,0.0,-999.0,63,-99.99,,,0.00,Acu-Link.com,2013-02-04 11:01:00,
2013-02-04 04:16:00,40.8,30.3,29.82,ENE,67,0.0,-999.0,66,-99.99,,,0.00,Acu-Link.com,2013-02-04 11:16:00,
2013-02-04 04:31:00,41.7,29.7,29.82,NE,45,0.0,-999.0,62,-99.99,,,0.00,Acu-Link.com,2013-02-04 11:31:00,
2013-02-04 04:47:00,42.8,29.9,29.83,NNE,22,0.0,-999.0,60,-99.99,,,0.00,Acu-Link.com,2013-02-04 11:47:00,
2013-02-04 05:02:00,42.8,30.3,29.83,WNW,292,0.0,-999.0,61,-99.99,,,0.00,Acu-Link.com,2013-02-04 12:02:00,
2013-02-04 05:17:00,42.4,30.3,29.84,WNW,292,0.0,-999.0,62,-99.99,,,0.00,Acu-Link.com,2013-02-04 12:17:00,
2013-02-04 05:32:00,41.4,30.5,29.84,West,270,0.0,-999.0,65,-99.99,,,0.00,Acu-Link.com,2013-02-04 12:32:00,
2013-02-04 05:47:00,40.6,30.5,29.84,WNW,292,0.0,-999.0,67,-99.99,,,0.00,Acu-Link.com,2013-02-04 12:47:00,
2013-02-04 06:02:00,40.5,30.4,29.84,NNW,337,0.0,-999.0,67,-99.99,,,0.00,Acu-Link.com,2013-02-04 13:02:00,
2013-02-04 06:17:00,41.0,30.5,29.84,WSW,247,0.0,-999.0,66,-99.99,,,0.00,Acu-Link.com,2013-02-04 13:17:00,
2013-02-04 06:32:00,41.4,30.5,29.84,NW,315,0.0,-999.0,65,-99.99,,,0.00,Acu-Link.com,2013-02-04 13:32:00,
2013-02-04 06:47:00,41.7,30.4,29.85,WSW,247,0.0,-999.0,64,-99.99,,,0.00,Acu-Link.com,2013-02-04 13:47:00,
2013-02-04 07:03:00,42.4,30.7,29.84,NW,315,0.0,-999.0,63,-99.99,,,0.00,Acu-Link.com,2013-02-04 14:03:00,
2013-02-04 07:18:00,43.2,30.7,29.85,NNW,337,0.0,-999.0,61,-99.99,,,0.00,Acu-Link.com,2013-02-04 14:18:00,
2013-02-04 07:33:00,44.1,30.7,29.86,West,270,1.7,-999.0,59,-99.99,,,0.00,Acu-Link.com,2013-02-04 14:33:00,
2013-02-04 07:48:00,45.3,31.4,29.87,WNW,292,1.7,-999.0,58,-99.99,,,0.00,Acu-Link.com,2013-02-04 14:48:00,
2013-02-04 08:03:00,46.6,31.3,29.87,WNW,292,2.7,-999.0,55,-99.99,,,0.00,Acu-Link.com,2013-02-04 15:03:00,
2013-02-04 08:18:00,49.5,31.6,29.89,West,270,5.3,-999.0,50,-99.99,,,0.00,Acu-Link.com,2013-02-04 15:18:00,
2013-02-04 08:33:00,52.0,31.9,29.89,NW,315,1.7,-999.0,46,-99.99,,,0.00,Acu-Link.com,2013-02-04 15:33:00,
2013-02-04 08:48:00,54.3,31.1,29.89,NW,315,1.1,-999.0,41,-99.99,,,0.00,Acu-Link.com,2013-02-04 15:48:00,
2013-02-04 09:03:00,54.5,29.4,29.89,West,270,4.7,-999.0,38,-99.99,,,0.00,Acu-Link.com,2013-02-04 16:03:00,
2013-02-04 09:18:00,54.7,29.6,29.91,NW,315,2.7,-999.0,38,-99.99,,,0.00,Acu-Link.com,2013-02-04 16:18:00,
2013-02-04 09:34:00,55.6,30.4,29.90,West,270,5.3,-999.0,38,-99.99,,,0.00,Acu-Link.com,2013-02-04 16:34:00,
2013-02-04 09:49:00,56.8,31.5,29.91,NW,315,2.7,-999.0,38,-99.99,,,0.00,Acu-Link.com,2013-02-04 16:49:00,
2013-02-04 10:04:00,57.7,31.6,29.91,West,270,4.7,-999.0,37,-99.99,,,0.00,Acu-Link.com,2013-02-04 17:04:00,
2013-02-04 10:19:00,59.4,32.4,29.91,ENE,67,3.7,-999.0,36,-99.99,,,0.00,Acu-Link.com,2013-02-04 17:19:00,
2013-02-04 10:34:00,59.5,32.5,29.90,WNW,292,4.2,-999.0,36,-99.99,,,0.00,Acu-Link.com,2013-02-04 17:34:00,
2013-02-04 10:49:00,61.9,33.9,29.90,NE,45,5.8,-999.0,35,-99.99,,,0.00,Acu-Link.com,2013-02-04 17:49:00,
2013-02-04 11:04:00,61.9,33.9,29.89,West,270,2.7,-999.0,35,-99.99,,,0.00,Acu-Link.com,2013-02-04 18:04:00,
2013-02-04 11:19:00,62.8,34.7,29.88,WSW,247,2.2,-999.0,35,-99.99,,,0.00,Acu-Link.com,2013-02-04 18:19:00,
2013-02-04 11:34:00,63.5,34.6,29.88,East,90,3.7,-999.0,34,-99.99,,,0.00,Acu-Link.com,2013-02-04 18:34:00,
2013-02-04 11:50:00,65.1,35.3,29.87,WSW,247,2.2,-999.0,33,-99.99,,,0.00,Acu-Link.com,2013-02-04 18:50:00,
2013-02-04 12:05:00,66.0,35.3,29.86,WSW,247,2.7,-999.0,32,-99.99,,,0.00,Acu-Link.com,2013-02-04 19:05:00,
2013-02-04 12:20:00,67.3,35.6,29.85,NNE,22,8.3,-999.0,31,-99.99,,,0.00,Acu-Link.com,2013-02-04 19:20:00,
2013-02-04 12:35:00,65.3,35.5,29.85,WSW,247,0.0,-999.0,33,-99.99,,,0.00,Acu-Link.com,2013-02-04 19:35:00,
2013-02-04 12:50:00,66.7,35.1,29.83,WNW,292,2.7,-999.0,31,-99.99,,,0.00,Acu-Link.com,2013-02-04 19:50:00,
2013-02-04 13:05:00,68.0,35.4,29.82,WSW,247,4.2,-999.0,30,-99.99,,,0.00,Acu-Link.com,2013-02-04 20:05:00,
2013-02-04 13:20:00,68.7,36.0,29.82,NW,315,6.3,-999.0,30,-99.99,,,0.00,Acu-Link.com,2013-02-04 20:20:00,
2013-02-04 13:35:00,68.5,36.7,29.81,West,270,4.7,-999.0,31,-99.99,,,0.00,Acu-Link.com,2013-02-04 20:35:00,
2013-02-04 13:50:00,68.4,36.6,29.81,NNW,337,4.7,-999.0,31,-99.99,,,0.00,Acu-Link.com,2013-02-04 20:50:00,
2013-02-04 14:06:00,67.6,36.7,29.81,NW,315,5.3,-999.0,32,-99.99,,,0.00,Acu-Link.com,2013-02-04 21:06:00,
2013-02-04 14:21:00,68.5,36.7,29.79,NW,315,5.3,-999.0,31,-99.99,,,0.00,Acu-Link.com,2013-02-04 21:21:00,
2013-02-04 14:36:00,68.4,36.6,29.79,North,0,7.3,-999.0,31,-99.99,,,0.00,Acu-Link.com,2013-02-04 21:36:00,
2013-02-04 14:51:00,69.1,37.2,29.79,WNW,292,2.2,-999.0,31,-99.99,,,0.00,Acu-Link.com,2013-02-04 21:51:00,
2013-02-04 15:06:00,67.3,36.4,29.78,NW,315,5.3,-999.0,32,-99.99,,,0.00,Acu-Link.com,2013-02-04 22:06:00,
2013-02-04 15:21:00,68.0,36.2,29.78,WSW,247,4.7,-999.0,31,-99.99,,,0.00,Acu-Link.com,2013-02-04 22:21:00,
2013-02-04 15:36:00,67.1,36.3,29.78,NNE,22,6.3,-999.0,32,-99.99,,,0.00,Acu-Link.com,2013-02-04 22:36:00,
2013-02-04 15:51:00,68.5,36.7,29.78,NNE,22,7.3,-999.0,31,-99.99,,,0.00,Acu-Link.com,2013-02-04 22:51:00,
2013-02-04 16:06:00,65.8,35.9,29.78,NW,315,10.9,-999.0,33,-99.99,,,0.00,Acu-Link.com,2013-02-04 23:06:00,
2013-02-04 16:22:00,66.4,36.4,29.78,WNW,292,3.2,-999.0,33,-99.99,,,0.00,Acu-Link.com,2013-02-04 23:22:00,
2013-02-04 16:37:00,66.7,36.7,29.78,North,0,4.2,-999.0,33,-99.99,,,0.00,Acu-Link.com,2013-02-04 23:37:00,
2013-02-04 16:52:00,65.7,35.8,29.78,NNE,22,2.2,-999.0,33,-99.99,,,0.00,Acu-Link.com,2013-02-04 23:52:00,
2013-02-04 17:07:00,64.4,36.2,29.78,WNW,292,3.7,-999.0,35,-99.99,,,0.00,Acu-Link.com,2013-02-05 00:07:00,
2013-02-04 17:22:00,63.5,36.1,29.78,NW,315,3.7,-999.0,36,-99.99,,,0.00,Acu-Link.com,2013-02-05 00:22:00,
2013-02-04 17:37:00,62.8,36.1,29.79,NW,315,4.2,-999.0,37,-99.99,,,0.00,Acu-Link.com,2013-02-05 00:37:00,
2013-02-04 18:07:00,60.6,35.5,29.79,WNW,292,0.0,-999.0,39,-99.99,,,0.00,Acu-Link.com,2013-02-05 01:07:00,
2013-02-04 18:22:00,59.2,34.9,29.79,WNW,292,0.0,-999.0,40,-99.99,,,0.00,Acu-Link.com,2013-02-05 01:22:00,
2013-02-04 18:38:00,57.9,35.0,29.81,WSW,247,0.0,-999.0,42,-99.99,,,0.00,Acu-Link.com,2013-02-05 01:38:00,
2013-02-04 18:53:00,56.3,34.7,29.80,WSW,247,0.0,-999.0,44,-99.99,,,0.00,Acu-Link.com,2013-02-05 01:53:00,
2013-02-04 19:08:00,54.9,34.5,29.80,WSW,247,0.0,-999.0,46,-99.99,,,0.00,Acu-Link.com,2013-02-05 02:08:00,
2013-02-04 19:23:00,53.2,34.0,29.80,SSW,202,0.0,-999.0,48,-99.99,,,0.00,Acu-Link.com,2013-02-05 02:23:00,
2013-02-04 19:38:00,51.6,34.1,29.81,ENE,67,0.0,-999.0,51,-99.99,,,0.00,Acu-Link.com,2013-02-05 02:38:00,
2013-02-04 19:53:00,50.4,33.4,29.82,WNW,292,0.0,-999.0,52,-99.99,,,0.00,Acu-Link.com,2013-02-05 02:53:00,
2013-02-04 20:08:00,49.1,33.2,29.81,NE,45,0.0,-999.0,54,-99.99,,,0.00,Acu-Link.com,2013-02-05 03:08:00,
2013-02-04 20:23:00,47.8,33.3,29.82,West,270,0.0,-999.0,57,-99.99,,,0.00,Acu-Link.com,2013-02-05 03:23:00,
2013-02-04 20:38:00,47.3,33.3,29.82,North,0,0.0,-999.0,58,-99.99,,,0.00,Acu-Link.com,2013-02-05 03:38:00,
2013-02-04 20:54:00,46.6,32.2,29.83,NNE,22,0.0,-999.0,57,-99.99,,,0.00,Acu-Link.com,2013-02-05 03:54:00,
2013-02-04 21:09:00,45.9,32.8,29.83,WSW,247,0.0,-999.0,60,-99.99,,,0.00,Acu-Link.com,2013-02-05 04:09:00,
2013-02-04 21:24:00,45.1,33.3,29.83,NNE,22,0.0,-999.0,63,-99.99,,,0.00,Acu-Link.com,2013-02-05 04:24:00,
2013-02-04 21:39:00,45.0,33.2,29.83,NNW,337,0.0,-999.0,63,-99.99,,,0.00,Acu-Link.com,2013-02-05 04:39:00,
2013-02-04 21:54:00,45.0,32.8,29.84,NW,315,0.0,-999.0,62,-99.99,,,0.00,Acu-Link.com,2013-02-05 04:54:00,
2013-02-04 22:09:00,44.1,31.9,29.84,SW,225,0.0,-999.0,62,-99.99,,,0.00,Acu-Link.com,2013-02-05 05:09:00,
2013-02-04 22:24:00,43.0,32.4,29.83,SW,225,0.0,-999.0,66,-99.99,,,0.00,Acu-Link.com,2013-02-05 05:24:00,
2013-02-04 22:39:00,42.4,31.9,29.84,ESE,112,0.0,-999.0,66,-99.99,,,0.00,Acu-Link.com,2013-02-05 05:39:00,
2013-02-04 22:54:00,41.9,32.1,29.84,SW,225,0.0,-999.0,68,-99.99,,,0.00,Acu-Link.com,2013-02-05 05:54:00,
2013-02-04 23:10:00,41.5,32.1,29.84,North,0,0.0,-999.0,69,-99.99,,,0.00,Acu-Link.com,2013-02-05 06:10:00,
2013-02-04 23:25:00,42.1,31.9,29.85,SSE,157,0.0,-999.0,67,-99.99,,,0.00,Acu-Link.com,2013-02-05 06:25:00,
2013-02-04 23:40:00,41.2,31.8,29.85,NE,45,0.0,-999.0,69,-99.99,,,0.00,Acu-Link.com,2013-02-05 06:40:00,
2013-02-04 23:55:00,40.6,31.2,29.84,NE,45,0.0,-999.0,69,-99.99,,,0.00,Acu-Link.com,2013-02-05 06:55:00,